KTOP/TOP METAR and TAF weather

Enter ICAO airport designator
Station Type Date Time Source
KTOP METAR 2019/02/21 12:11 UTC NOAA

KTOP 211211Z AUTO 10003KT 3SM HZ OVC002 M08/M11 A3012 RMK AO2 T10781106


Station Type Date Time Source
KTOP Decoded METAR 2019/02/21 12:11 UTC NOAA

TOPEKA BILLARD MUNICIPAL AIRPORT, KS, United States (KTOP) 39-04N 95-38W 268M
Feb 21, 2019 - 07:11 AM EST / 2019.02.21 1211 UTC
Wind: from the E (100 degrees) at 3 MPH (3 KT):0
Visibility: 3 mile(s):0
Sky conditions: overcast
Weather: haze
Temperature: 18.0 F (-7.8 C)
Dew Point: 12.9 F (-10.6 C)
Relative Humidity: 80%
Pressure (altimeter): 30.12 in. Hg (1019 hPa)
ob: KTOP 211211Z AUTO 10003KT 3SM HZ OVC002 M08/M11 A3012 RMK AO2 T10781106
cycle: 12

Station Type Date Time Source
KTOP TAF 2019/02/21 12:22 UTC NOAA

TAF KTOP 211120Z 2112/2212 00000KT 1/4SM FG VV002
TEMPO 2113/2115 3SM BR SCT200
FM211500 11008KT P6SM SCT100


Example: see airport list